createdAt,value
2023-06-14T00:00:19.849Z,99470.74
2023-06-14T00:11:19.322Z,99470.20
2023-06-14T00:21:44.804Z,99472.55
2023-06-14T00:32:10.008Z,99475.91
2023-06-14T00:42:34.193Z,99469.05
2023-06-14T00:52:59.360Z,99473.30
2023-06-14T01:03:24.369Z,99463.73
2023-06-14T01:13:48.875Z,99471.98
2023-06-14T01:24:13.696Z,99462.15
2023-06-14T01:34:37.961Z,99470.34
2023-06-14T01:45:02.787Z,99485.87
2023-06-14T01:55:27.305Z,99480.29
2023-06-14T02:05:51.526Z,99489.40
2023-06-14T02:16:16.024Z,99487.73
2023-06-14T02:26:42.775Z,99484.27
2023-06-14T02:37:07.308Z,99480.98
2023-06-14T02:47:31.401Z,99489.84
2023-06-14T02:57:55.994Z,99494.77
2023-06-14T03:08:20.758Z,99498.02
2023-06-14T03:18:45.441Z,99507.64
2023-06-14T03:29:11.094Z,99511.20
2023-06-14T03:39:36.203Z,99520.48
2023-06-14T03:50:00.181Z,99521.57
2023-06-14T04:00:24.826Z,99517.64
2023-06-14T04:10:49.518Z,99514.27
2023-06-14T04:21:13.581Z,99516.52
2023-06-14T04:31:39.274Z,99519.63
2023-06-14T04:42:06.240Z,99523.89
2023-06-14T04:52:33.013Z,99521.95
2023-06-14T05:02:58.632Z,99527.33
2023-06-14T05:13:24.709Z,99525.27
2023-06-14T05:23:49.193Z,99532.20
2023-06-14T05:34:13.871Z,99537.59
2023-06-14T05:44:38.475Z,99536.91
2023-06-14T05:55:02.873Z,99544.17
2023-06-14T06:05:27.925Z,99553.05
2023-06-14T06:15:52.502Z,99557.71
2023-06-14T06:26:16.971Z,99566.20
2023-06-14T06:36:41.721Z,99573.13
2023-06-14T06:47:06.396Z,99579.13
2023-06-14T06:57:33.358Z,99588.86
2023-06-14T07:07:58.381Z,99580.67
2023-06-14T07:18:23.621Z,99581.20
2023-06-14T07:41:19.626Z,99581.17
2023-06-14T07:51:45.784Z,99587.64
2023-06-14T08:02:09.823Z,99590.50
2023-06-14T08:12:36.154Z,99589.38
2023-06-14T08:23:00.850Z,99595.48
2023-06-14T08:33:24.960Z,99603.20
2023-06-14T08:43:50.572Z,99609.55
2023-06-14T08:54:17.127Z,99599.34
2023-06-14T09:04:41.101Z,99594.64
2023-06-14T09:15:07.604Z,99589.20
2023-06-14T09:25:39.077Z,99591.64
2023-06-14T09:36:03.973Z,99600.25
2023-06-14T09:46:29.849Z,99594.77
2023-06-14T09:56:54.750Z,99597.15
2023-06-14T10:07:21.978Z,99587.45
2023-06-14T10:17:57.065Z,99584.38
2023-06-14T10:28:29.027Z,99583.02
2023-06-14T10:39:07.103Z,99574.40
2023-06-14T10:49:46.498Z,99567.70
2023-06-14T11:00:17.564Z,99554.73
2023-06-14T11:10:44.669Z,99549.45
2023-06-14T11:21:10.283Z,99549.15
2023-06-14T11:31:35.304Z,99534.73
2023-06-14T11:42:02.653Z,99528.91
2023-06-14T11:52:27.713Z,99533.16
2023-06-14T12:02:57.529Z,99524.99
2023-06-14T12:13:21.667Z,99514.33
2023-06-14T12:23:48.967Z,99513.53
2023-06-14T12:34:13.555Z,99506.88
2023-06-14T12:44:42.255Z,99506.63
2023-06-14T12:55:08.307Z,99506.53
2023-06-14T13:05:34.681Z,99511.57
2023-06-14T13:15:58.868Z,99520.73
2023-06-14T13:26:23.090Z,99534.68
2023-06-14T13:36:48.889Z,99543.59
2023-06-14T13:47:12.918Z,99539.40
2023-06-14T13:57:38.099Z,99535.13
2023-06-14T14:08:03.312Z,99526.84
2023-06-14T14:18:29.738Z,99519.60
2023-06-14T14:29:48.475Z,99514.64
2023-06-14T14:40:15.621Z,99512.10
2023-06-14T14:50:39.983Z,99502.40
2023-06-14T15:01:04.870Z,99498.19
2023-06-14T15:11:29.281Z,99504.67
2023-06-14T15:21:53.395Z,99494.89
2023-06-14T15:32:17.746Z,99483.83
2023-06-14T15:42:42.548Z,99496.09
2023-06-14T15:53:06.904Z,99499.11
2023-06-14T16:03:31.203Z,99496.46
2023-06-14T16:13:57.007Z,99502.54
2023-06-14T16:24:20.931Z,99500.98
2023-06-14T16:34:45.568Z,99501.96
2023-06-14T16:45:10.327Z,99509.16
2023-06-14T16:55:36.304Z,99512.36
2023-06-14T17:06:00.565Z,99515.85
2023-06-14T17:16:25.101Z,99521.98
2023-06-14T17:26:50.332Z,99529.82
2023-06-14T17:37:14.868Z,99529.44
2023-06-14T17:47:39.569Z,99532.05
2023-06-14T17:58:05.251Z,99527.29
2023-06-14T18:08:29.884Z,99534.74
2023-06-14T18:18:55.268Z,99538.52
2023-06-14T18:29:20.359Z,99537.73
2023-06-14T18:39:45.535Z,99537.06
2023-06-14T18:50:11.324Z,99543.52
2023-06-14T19:00:36.014Z,99551.04
2023-06-14T19:11:01.434Z,99555.56
2023-06-14T19:21:26.154Z,99561.36
2023-06-14T19:31:50.713Z,99572.50
2023-06-14T19:42:15.212Z,99567.75
2023-06-14T19:52:40.248Z,99569.19
2023-06-14T20:03:04.418Z,99576.48
2023-06-14T20:13:28.992Z,99576.48
2023-06-14T20:23:53.599Z,99577.38
2023-06-14T20:34:18.401Z,99579.59
2023-06-14T20:44:43.704Z,99588.23
2023-06-14T20:55:08.969Z,99595.20
2023-06-14T21:05:34.080Z,99595.37
2023-06-14T21:15:58.885Z,99589.71
2023-06-14T21:26:24.291Z,99588.43
2023-06-14T21:36:49.793Z,99589.93
2023-06-14T21:47:15.204Z,99594.10
2023-06-14T21:57:39.711Z,99596.07
2023-06-14T22:08:03.956Z,99581.99
2023-06-14T22:18:29.666Z,99580.08
2023-06-14T22:28:54.803Z,99581.34
2023-06-14T22:39:18.770Z,99580.88
2023-06-14T22:49:45.867Z,99584.52
2023-06-14T23:00:15.967Z,99577.18
2023-06-14T23:10:41.757Z,99575.18
2023-06-14T23:21:06.940Z,99580.20
2023-06-14T23:31:31.073Z,99573.60
2023-06-14T23:41:55.435Z,99566.31
2023-06-14T23:52:20.100Z,99556.65
